sensor_id;sensor_type;location;lat;lon;timestamp;pressure;altitude;pressure_sealevel;temperature
80422;BMP280;69763;50.182;9.144;2023-05-29T00:01:21;100260.22;;;11.89
80422;BMP280;69763;50.182;9.144;2023-05-29T00:03:47;100250.09;;;11.89
80422;BMP280;69763;50.182;9.144;2023-05-29T00:06:13;100255.53;;;11.89
80422;BMP280;69763;50.182;9.144;2023-05-29T00:08:39;100262.41;;;11.90
80422;BMP280;69763;50.182;9.144;2023-05-29T00:11:04;100256.78;;;11.88
80422;BMP280;69763;50.182;9.144;2023-05-29T00:13:30;100253.25;;;11.75
80422;BMP280;69763;50.182;9.144;2023-05-29T00:15:55;100251.19;;;11.62
80422;BMP280;69763;50.182;9.144;2023-05-29T00:18:20;100251.34;;;11.51
80422;BMP280;69763;50.182;9.144;2023-05-29T00:20:46;100257.53;;;11.51
80422;BMP280;69763;50.182;9.144;2023-05-29T00:23:12;100254.69;;;11.44
80422;BMP280;69763;50.182;9.144;2023-05-29T00:25:38;100253.72;;;11.41
80422;BMP280;69763;50.182;9.144;2023-05-29T00:28:03;100251.16;;;11.49
80422;BMP280;69763;50.182;9.144;2023-05-29T00:30:28;100250.63;;;11.50
80422;BMP280;69763;50.182;9.144;2023-05-29T00:32:54;100256.88;;;11.45
80422;BMP280;69763;50.182;9.144;2023-05-29T00:35:19;100263.56;;;11.44
80422;BMP280;69763;50.182;9.144;2023-05-29T00:37:45;100250.41;;;11.48
80422;BMP280;69763;50.182;9.144;2023-05-29T00:40:12;100246.31;;;11.42
80422;BMP280;69763;50.182;9.144;2023-05-29T00:42:37;100249.81;;;11.37
80422;BMP280;69763;50.182;9.144;2023-05-29T00:45:03;100256.25;;;11.34
80422;BMP280;69763;50.182;9.144;2023-05-29T00:47:29;100249.91;;;11.31
80422;BMP280;69763;50.182;9.144;2023-05-29T00:49:55;100253.69;;;11.22
80422;BMP280;69763;50.182;9.144;2023-05-29T00:52:21;100247.66;;;11.11
80422;BMP280;69763;50.182;9.144;2023-05-29T00:54:48;100245.88;;;10.95
80422;BMP280;69763;50.182;9.144;2023-05-29T00:57:16;100245.50;;;10.85
80422;BMP280;69763;50.182;9.144;2023-05-29T00:59:42;100240.38;;;10.76
80422;BMP280;69763;50.182;9.144;2023-05-29T01:02:09;100240.94;;;10.69
80422;BMP280;69763;50.182;9.144;2023-05-29T01:04:34;100241.56;;;10.56
80422;BMP280;69763;50.182;9.144;2023-05-29T01:07:00;100249.69;;;10.56
80422;BMP280;69763;50.182;9.144;2023-05-29T01:09:26;100243.03;;;10.57
80422;BMP280;69763;50.182;9.144;2023-05-29T01:11:58;100239.41;;;10.49
80422;BMP280;69763;50.182;9.144;2023-05-29T01:14:31;100242.78;;;10.55
80422;BMP280;69763;50.182;9.144;2023-05-29T01:17:04;100240.09;;;10.55
80422;BMP280;69763;50.182;9.144;2023-05-29T01:19:46;100250.25;;;10.49
80422;BMP280;69763;50.182;9.144;2023-05-29T01:22:31;100255.66;;;10.49
80422;BMP280;69763;50.182;9.144;2023-05-29T01:25:04;100249.97;;;10.53
80422;BMP280;69763;50.182;9.144;2023-05-29T01:27:37;100242.13;;;10.49
80422;BMP280;69763;50.182;9.144;2023-05-29T01:30:04;100238.78;;;10.37
80422;BMP280;69763;50.182;9.144;2023-05-29T01:32:30;100239.59;;;10.27
80422;BMP280;69763;50.182;9.144;2023-05-29T01:34:56;100242.63;;;10.18
80422;BMP280;69763;50.182;9.144;2023-05-29T01:37:21;100247.09;;;10.15
80422;BMP280;69763;50.182;9.144;2023-05-29T01:39:47;100246.84;;;10.13
80422;BMP280;69763;50.182;9.144;2023-05-29T01:42:13;100244.88;;;10.14
80422;BMP280;69763;50.182;9.144;2023-05-29T01:44:40;100248.59;;;10.11
80422;BMP280;69763;50.182;9.144;2023-05-29T01:47:06;100244.38;;;10.15
80422;BMP280;69763;50.182;9.144;2023-05-29T01:49:32;100248.56;;;10.16
80422;BMP280;69763;50.182;9.144;2023-05-29T01:51:58;100254.22;;;10.18
80422;BMP280;69763;50.182;9.144;2023-05-29T01:54:23;100244.38;;;10.15
80422;BMP280;69763;50.182;9.144;2023-05-29T01:56:49;100248.06;;;10.12
80422;BMP280;69763;50.182;9.144;2023-05-29T01:59:15;100245.88;;;10.11
80422;BMP280;69763;50.182;9.144;2023-05-29T02:01:42;100238.47;;;10.11
80422;BMP280;69763;50.182;9.144;2023-05-29T02:04:07;100237.28;;;10.06
80422;BMP280;69763;50.182;9.144;2023-05-29T02:06:33;100237.78;;;10.05
80422;BMP280;69763;50.182;9.144;2023-05-29T02:08:58;100240.50;;;10.05
80422;BMP280;69763;50.182;9.144;2023-05-29T02:11:24;100238.56;;;10.00
80422;BMP280;69763;50.182;9.144;2023-05-29T02:13:49;100230.19;;;9.98
80422;BMP280;69763;50.182;9.144;2023-05-29T02:16:14;100228.50;;;9.95
80422;BMP280;69763;50.182;9.144;2023-05-29T02:18:41;100223.53;;;9.99
80422;BMP280;69763;50.182;9.144;2023-05-29T02:21:06;100226.53;;;9.95
80422;BMP280;69763;50.182;9.144;2023-05-29T02:23:32;100223.31;;;9.97
80422;BMP280;69763;50.182;9.144;2023-05-29T02:25:57;100216.34;;;10.07
80422;BMP280;69763;50.182;9.144;2023-05-29T02:28:22;100219.06;;;10.07
80422;BMP280;69763;50.182;9.144;2023-05-29T02:30:48;100209.47;;;10.06
80422;BMP280;69763;50.182;9.144;2023-05-29T02:33:13;100217.34;;;10.10
80422;BMP280;69763;50.182;9.144;2023-05-29T02:35:40;100220.28;;;10.06
80422;BMP280;69763;50.182;9.144;2023-05-29T02:38:05;100220.09;;;9.98
80422;BMP280;69763;50.182;9.144;2023-05-29T02:40:31;100227.00;;;9.99
80422;BMP280;69763;50.182;9.144;2023-05-29T02:42:56;100224.03;;;9.97
80422;BMP280;69763;50.182;9.144;2023-05-29T02:45:21;100232.47;;;9.94
80422;BMP280;69763;50.182;9.144;2023-05-29T02:47:47;100233.19;;;9.94
80422;BMP280;69763;50.182;9.144;2023-05-29T02:50:12;100221.34;;;9.97
80422;BMP280;69763;50.182;9.144;2023-05-29T02:52:39;100223.09;;;9.95
80422;BMP280;69763;50.182;9.144;2023-05-29T02:55:04;100222.34;;;9.94
80422;BMP280;69763;50.182;9.144;2023-05-29T02:57:30;100222.59;;;9.96
80422;BMP280;69763;50.182;9.144;2023-05-29T02:59:55;100214.69;;;9.98
80422;BMP280;69763;50.182;9.144;2023-05-29T03:02:20;100216.13;;;10.05
80422;BMP280;69763;50.182;9.144;2023-05-29T03:04:46;100214.69;;;9.98
80422;BMP280;69763;50.182;9.144;2023-05-29T03:07:11;100224.84;;;9.92
80422;BMP280;69763;50.182;9.144;2023-05-29T03:09:38;100229.56;;;9.86
80422;BMP280;69763;50.182;9.144;2023-05-29T03:12:04;100222.47;;;9.78
80422;BMP280;69763;50.182;9.144;2023-05-29T03:14:30;100229.44;;;9.68
80422;BMP280;69763;50.182;9.144;2023-05-29T03:16:55;100233.88;;;9.65
80422;BMP280;69763;50.182;9.144;2023-05-29T03:19:20;100234.09;;;9.61
80422;BMP280;69763;50.182;9.144;2023-05-29T03:21:46;100239.81;;;9.58
80422;BMP280;69763;50.182;9.144;2023-05-29T03:24:11;100237.13;;;9.52
80422;BMP280;69763;50.182;9.144;2023-05-29T03:26:38;100237.66;;;9.45
80422;BMP280;69763;50.182;9.144;2023-05-29T03:29:03;100236.91;;;9.45
80422;BMP280;69763;50.182;9.144;2023-05-29T03:31:29;100235.66;;;9.46
80422;BMP280;69763;50.182;9.144;2023-05-29T03:33:54;100240.09;;;9.49
80422;BMP280;69763;50.182;9.144;2023-05-29T03:36:20;100243.53;;;9.49
80422;BMP280;69763;50.182;9.144;2023-05-29T03:38:45;100233.69;;;9.46
80422;BMP280;69763;50.182;9.144;2023-05-29T03:41:10;100245.00;;;9.50
80422;BMP280;69763;50.182;9.144;2023-05-29T03:43:37;100249.66;;;9.55
80422;BMP280;69763;50.182;9.144;2023-05-29T03:46:03;100247.19;;;9.57
80422;BMP280;69763;50.182;9.144;2023-05-29T03:48:28;100253.06;;;9.61
80422;BMP280;69763;50.182;9.144;2023-05-29T03:50:53;100255.50;;;9.65
80422;BMP280;69763;50.182;9.144;2023-05-29T03:53:19;100260.44;;;9.66
80422;BMP280;69763;50.182;9.144;2023-05-29T03:55:44;100259.91;;;9.68
80422;BMP280;69763;50.182;9.144;2023-05-29T03:58:10;100264.81;;;9.75
80422;BMP280;69763;50.182;9.144;2023-05-29T04:00:36;100272.69;;;9.79
80422;BMP280;69763;50.182;9.144;2023-05-29T04:03:02;100258.66;;;9.80
80422;BMP280;69763;50.182;9.144;2023-05-29T04:05:27;100267.47;;;9.86
80422;BMP280;69763;50.182;9.144;2023-05-29T04:07:52;100275.56;;;9.92
80422;BMP280;69763;50.182;9.144;2023-05-29T04:10:18;100276.75;;;9.96
80422;BMP280;69763;50.182;9.144;2023-05-29T04:12:43;100279.63;;;10.04
80422;BMP280;69763;50.182;9.144;2023-05-29T04:15:09;100284.03;;;10.13
80422;BMP280;69763;50.182;9.144;2023-05-29T04:17:36;100286.72;;;10.18
80422;BMP280;69763;50.182;9.144;2023-05-29T04:20:01;100295.31;;;10.22
80422;BMP280;69763;50.182;9.144;2023-05-29T04:22:27;100299.94;;;10.27
80422;BMP280;69763;50.182;9.144;2023-05-29T04:24:52;100299.16;;;10.32
80422;BMP280;69763;50.182;9.144;2023-05-29T04:27:17;100306.75;;;10.39
80422;BMP280;69763;50.182;9.144;2023-05-29T04:29:43;100308.41;;;10.48
80422;BMP280;69763;50.182;9.144;2023-05-29T04:32:08;100312.28;;;10.58
80422;BMP280;69763;50.182;9.144;2023-05-29T04:34:35;100312.66;;;10.73
80422;BMP280;69763;50.182;9.144;2023-05-29T04:37:01;100300.47;;;10.85
80422;BMP280;69763;50.182;9.144;2023-05-29T04:39:26;100294.41;;;10.98
80422;BMP280;69763;50.182;9.144;2023-05-29T04:41:52;100306.84;;;11.12
80422;BMP280;69763;50.182;9.144;2023-05-29T04:44:18;100307.88;;;11.28
80422;BMP280;69763;50.182;9.144;2023-05-29T04:46:43;100317.63;;;11.42
80422;BMP280;69763;50.182;9.144;2023-05-29T04:49:08;100316.94;;;11.55
80422;BMP280;69763;50.182;9.144;2023-05-29T04:51:35;100325.19;;;11.68
80422;BMP280;69763;50.182;9.144;2023-05-29T04:54:00;100327.75;;;11.79
80422;BMP280;69763;50.182;9.144;2023-05-29T04:56:26;100332.53;;;11.92
80422;BMP280;69763;50.182;9.144;2023-05-29T04:58:51;100323.69;;;12.04
80422;BMP280;69763;50.182;9.144;2023-05-29T05:01:16;100339.81;;;12.15
80422;BMP280;69763;50.182;9.144;2023-05-29T05:03:42;100336.22;;;12.26
80422;BMP280;69763;50.182;9.144;2023-05-29T05:06:07;100344.50;;;12.34
80422;BMP280;69763;50.182;9.144;2023-05-29T05:08:34;100352.28;;;12.43
80422;BMP280;69763;50.182;9.144;2023-05-29T05:11:00;100352.09;;;12.54
80422;BMP280;69763;50.182;9.144;2023-05-29T05:13:26;100349.69;;;12.64
80422;BMP280;69763;50.182;9.144;2023-05-29T05:15:51;100349.00;;;12.76
80422;BMP280;69763;50.182;9.144;2023-05-29T05:18:17;100358.44;;;12.88
80422;BMP280;69763;50.182;9.144;2023-05-29T05:20:42;100357.09;;;12.95
80422;BMP280;69763;50.182;9.144;2023-05-29T05:23:07;100368.28;;;13.05
80422;BMP280;69763;50.182;9.144;2023-05-29T05:25:34;100365.44;;;13.10
80422;BMP280;69763;50.182;9.144;2023-05-29T05:27:59;100366.72;;;13.22
80422;BMP280;69763;50.182;9.144;2023-05-29T05:30:25;100354.16;;;13.32
80422;BMP280;69763;50.182;9.144;2023-05-29T05:32:50;100368.09;;;13.42
80422;BMP280;69763;50.182;9.144;2023-05-29T05:35:15;100356.75;;;13.51
80422;BMP280;69763;50.182;9.144;2023-05-29T05:37:41;100359.88;;;13.55
80422;BMP280;69763;50.182;9.144;2023-05-29T05:40:07;100356.41;;;13.68
80422;BMP280;69763;50.182;9.144;2023-05-29T05:42:34;100360.97;;;13.86
80422;BMP280;69763;50.182;9.144;2023-05-29T05:44:59;100362.72;;;13.97
80422;BMP280;69763;50.182;9.144;2023-05-29T05:47:25;100370.06;;;14.09
80422;BMP280;69763;50.182;9.144;2023-05-29T05:49:50;100365.25;;;14.15
80422;BMP280;69763;50.182;9.144;2023-05-29T05:52:16;100371.16;;;14.27
80422;BMP280;69763;50.182;9.144;2023-05-29T05:54:41;100367.72;;;14.47
80422;BMP280;69763;50.182;9.144;2023-05-29T05:57:06;100362.00;;;14.66
80422;BMP280;69763;50.182;9.144;2023-05-29T05:59:33;100357.34;;;14.74
80422;BMP280;69763;50.182;9.144;2023-05-29T06:01:58;100369.41;;;14.79
80422;BMP280;69763;50.182;9.144;2023-05-29T06:04:24;100368.75;;;14.93
80422;BMP280;69763;50.182;9.144;2023-05-29T06:06:49;100363.19;;;15.06
80422;BMP280;69763;50.182;9.144;2023-05-29T06:09:15;100367.13;;;15.26
80422;BMP280;69763;50.182;9.144;2023-05-29T06:11:40;100363.06;;;15.55
80422;BMP280;69763;50.182;9.144;2023-05-29T06:14:05;100366.78;;;15.96
80422;BMP280;69763;50.182;9.144;2023-05-29T06:16:32;100371.19;;;16.37
80422;BMP280;69763;50.182;9.144;2023-05-29T06:18:57;100373.50;;;16.86
80422;BMP280;69763;50.182;9.144;2023-05-29T06:21:23;100375.09;;;17.44
80422;BMP280;69763;50.182;9.144;2023-05-29T06:23:48;100374.94;;;17.99
80422;BMP280;69763;50.182;9.144;2023-05-29T06:26:14;100383.94;;;18.59
80422;BMP280;69763;50.182;9.144;2023-05-29T06:28:39;100379.22;;;19.20
80422;BMP280;69763;50.182;9.144;2023-05-29T06:31:05;100378.66;;;19.85
80422;BMP280;69763;50.182;9.144;2023-05-29T06:33:31;100379.81;;;21.35
80422;BMP280;69763;50.182;9.144;2023-05-29T06:35:57;100373.03;;;22.52
80422;BMP280;69763;50.182;9.144;2023-05-29T06:38:22;100376.56;;;23.09
80422;BMP280;69763;50.182;9.144;2023-05-29T06:40:48;100371.38;;;23.49
80422;BMP280;69763;50.182;9.144;2023-05-29T06:43:13;100386.88;;;23.89
80422;BMP280;69763;50.182;9.144;2023-05-29T06:45:38;100381.91;;;23.99
80422;BMP280;69763;50.182;9.144;2023-05-29T06:48:04;100379.94;;;24.14
80422;BMP280;69763;50.182;9.144;2023-05-29T06:50:31;100388.06;;;23.98
80422;BMP280;69763;50.182;9.144;2023-05-29T06:52:56;100377.28;;;23.79
80422;BMP280;69763;50.182;9.144;2023-05-29T06:55:21;100391.22;;;23.81
80422;BMP280;69763;50.182;9.144;2023-05-29T06:57:47;100387.22;;;23.95
80422;BMP280;69763;50.182;9.144;2023-05-29T07:00:13;100378.22;;;23.83
80422;BMP280;69763;50.182;9.144;2023-05-29T07:02:39;100377.19;;;24.14
80422;BMP280;69763;50.182;9.144;2023-05-29T07:05:05;100381.53;;;24.42
80422;BMP280;69763;50.182;9.144;2023-05-29T07:07:34;100376.69;;;24.93
80422;BMP280;69763;50.182;9.144;2023-05-29T07:09:59;100382.47;;;25.38
80422;BMP280;69763;50.182;9.144;2023-05-29T07:12:25;100384.16;;;25.72
80422;BMP280;69763;50.182;9.144;2023-05-29T07:14:50;100385.72;;;25.48
80422;BMP280;69763;50.182;9.144;2023-05-29T07:17:15;100389.66;;;25.43
80422;BMP280;69763;50.182;9.144;2023-05-29T07:19:40;100392.31;;;25.41
80422;BMP280;69763;50.182;9.144;2023-05-29T07:22:06;100393.03;;;25.55
80422;BMP280;69763;50.182;9.144;2023-05-29T07:24:33;100393.38;;;26.04
80422;BMP280;69763;50.182;9.144;2023-05-29T07:26:58;100393.56;;;26.08
80422;BMP280;69763;50.182;9.144;2023-05-29T07:29:23;100385.91;;;26.22
80422;BMP280;69763;50.182;9.144;2023-05-29T07:31:49;100390.75;;;26.21
80422;BMP280;69763;50.182;9.144;2023-05-29T07:34:14;100399.63;;;26.47
80422;BMP280;69763;50.182;9.144;2023-05-29T07:36:55;100394.00;;;26.02
80422;BMP280;69763;50.182;9.144;2023-05-29T07:39:21;100396.25;;;26.35
80422;BMP280;69763;50.182;9.144;2023-05-29T07:41:48;100401.03;;;26.19
80422;BMP280;69763;50.182;9.144;2023-05-29T07:44:13;100392.13;;;26.36
80422;BMP280;69763;50.182;9.144;2023-05-29T07:46:38;100404.56;;;26.80
80422;BMP280;69763;50.182;9.144;2023-05-29T07:49:03;100408.94;;;26.69
80422;BMP280;69763;50.182;9.144;2023-05-29T07:51:29;100407.81;;;26.74
80422;BMP280;69763;50.182;9.144;2023-05-29T07:53:54;100409.09;;;26.58
80422;BMP280;69763;50.182;9.144;2023-05-29T07:56:20;100415.31;;;26.56
80422;BMP280;69763;50.182;9.144;2023-05-29T07:58:46;100406.13;;;26.38
80422;BMP280;69763;50.182;9.144;2023-05-29T08:01:12;100405.72;;;26.30
80422;BMP280;69763;50.182;9.144;2023-05-29T08:03:37;100409.91;;;26.60
80422;BMP280;69763;50.182;9.144;2023-05-29T08:06:02;100398.78;;;27.38
80422;BMP280;69763;50.182;9.144;2023-05-29T08:08:28;100405.94;;;28.30
80422;BMP280;69763;50.182;9.144;2023-05-29T08:10:53;100400.91;;;29.01
80422;BMP280;69763;50.182;9.144;2023-05-29T08:13:18;100398.66;;;29.17
80422;BMP280;69763;50.182;9.144;2023-05-29T08:15:45;100404.53;;;29.25
80422;BMP280;69763;50.182;9.144;2023-05-29T08:18:10;100406.66;;;29.46
80422;BMP280;69763;50.182;9.144;2023-05-29T08:20:36;100404.16;;;29.35
80422;BMP280;69763;50.182;9.144;2023-05-29T08:23:01;100401.44;;;28.58
80422;BMP280;69763;50.182;9.144;2023-05-29T08:25:26;100404.50;;;28.29
80422;BMP280;69763;50.182;9.144;2023-05-29T08:27:52;100400.44;;;28.32
80422;BMP280;69763;50.182;9.144;2023-05-29T08:30:17;100403.09;;;28.28
80422;BMP280;69763;50.182;9.144;2023-05-29T08:32:44;100397.19;;;27.84
80422;BMP280;69763;50.182;9.144;2023-05-29T08:35:09;100401.34;;;28.01
80422;BMP280;69763;50.182;9.144;2023-05-29T08:37:34;100399.88;;;27.65
80422;BMP280;69763;50.182;9.144;2023-05-29T08:40:00;100394.19;;;27.96
80422;BMP280;69763;50.182;9.144;2023-05-29T08:42:29;100388.50;;;28.29
80422;BMP280;69763;50.182;9.144;2023-05-29T08:44:56;100393.03;;;28.38
80422;BMP280;69763;50.182;9.144;2023-05-29T08:47:23;100390.94;;;28.01
80422;BMP280;69763;50.182;9.144;2023-05-29T08:49:53;100387.69;;;27.56
80422;BMP280;69763;50.182;9.144;2023-05-29T08:52:23;100387.13;;;27.42
80422;BMP280;69763;50.182;9.144;2023-05-29T08:54:48;100386.72;;;27.50
80422;BMP280;69763;50.182;9.144;2023-05-29T08:57:14;100390.59;;;27.42
80422;BMP280;69763;50.182;9.144;2023-05-29T08:59:42;100388.53;;;27.43
80422;BMP280;69763;50.182;9.144;2023-05-29T09:02:09;100384.44;;;27.28
80422;BMP280;69763;50.182;9.144;2023-05-29T09:04:34;100381.28;;;27.36
80422;BMP280;69763;50.182;9.144;2023-05-29T09:07:01;100384.72;;;27.03
80422;BMP280;69763;50.182;9.144;2023-05-29T09:09:26;100384.75;;;26.88
80422;BMP280;69763;50.182;9.144;2023-05-29T09:11:52;100391.72;;;27.20
80422;BMP280;69763;50.182;9.144;2023-05-29T09:14:34;100384.72;;;28.03
80422;BMP280;69763;50.182;9.144;2023-05-29T09:16:59;100383.03;;;27.96
80422;BMP280;69763;50.182;9.144;2023-05-29T09:19:25;100387.56;;;28.05
80422;BMP280;69763;50.182;9.144;2023-05-29T09:21:50;100383.78;;;27.63
80422;BMP280;69763;50.182;9.144;2023-05-29T09:24:19;100386.00;;;27.49
80422;BMP280;69763;50.182;9.144;2023-05-29T09:26:49;100387.59;;;27.54
80422;BMP280;69763;50.182;9.144;2023-05-29T09:29:15;100389.53;;;27.34
80422;BMP280;69763;50.182;9.144;2023-05-29T09:31:45;100390.91;;;27.33
80422;BMP280;69763;50.182;9.144;2023-05-29T09:34:11;100389.91;;;27.42
80422;BMP280;69763;50.182;9.144;2023-05-29T09:36:37;100386.47;;;27.43
80422;BMP280;69763;50.182;9.144;2023-05-29T09:39:03;100386.13;;;27.51
80422;BMP280;69763;50.182;9.144;2023-05-29T09:41:29;100389.97;;;27.44
80422;BMP280;69763;50.182;9.144;2023-05-29T09:43:56;100386.00;;;27.49
80422;BMP280;69763;50.182;9.144;2023-05-29T09:46:21;100382.44;;;27.31
80422;BMP280;69763;50.182;9.144;2023-05-29T09:48:46;100380.84;;;27.26
80422;BMP280;69763;50.182;9.144;2023-05-29T09:51:19;100391.44;;;27.14
80422;BMP280;69763;50.182;9.144;2023-05-29T09:53:46;100379.53;;;26.96
80422;BMP280;69763;50.182;9.144;2023-05-29T09:56:11;100380.09;;;26.76
80422;BMP280;69763;50.182;9.144;2023-05-29T09:58:40;100384.44;;;26.66
80422;BMP280;69763;50.182;9.144;2023-05-29T10:01:07;100379.47;;;26.33
80422;BMP280;69763;50.182;9.144;2023-05-29T10:03:32;100379.47;;;26.33
80422;BMP280;69763;50.182;9.144;2023-05-29T10:05:58;100387.06;;;26.46
80422;BMP280;69763;50.182;9.144;2023-05-29T10:08:25;100375.88;;;26.31
80422;BMP280;69763;50.182;9.144;2023-05-29T10:10:55;100367.03;;;26.05
80422;BMP280;69763;50.182;9.144;2023-05-29T10:13:24;100371.06;;;25.45
80422;BMP280;69763;50.182;9.144;2023-05-29T10:15:52;100372.16;;;24.99
80422;BMP280;69763;50.182;9.144;2023-05-29T10:18:21;100380.50;;;24.74
80422;BMP280;69763;50.182;9.144;2023-05-29T10:20:49;100369.91;;;24.45
80422;BMP280;69763;50.182;9.144;2023-05-29T10:23:15;100354.75;;;24.46
80422;BMP280;69763;50.182;9.144;2023-05-29T10:25:41;100366.03;;;24.37
80422;BMP280;69763;50.182;9.144;2023-05-29T10:28:09;100360.59;;;24.39
80422;BMP280;69763;50.182;9.144;2023-05-29T10:30:39;100365.84;;;24.46
80422;BMP280;69763;50.182;9.144;2023-05-29T10:33:47;100369.94;;;24.71
80422;BMP280;69763;50.182;9.144;2023-05-29T10:36:14;100363.59;;;24.82
80422;BMP280;69763;50.182;9.144;2023-05-29T10:38:44;100375.50;;;24.84
80422;BMP280;69763;50.182;9.144;2023-05-29T10:41:28;100375.25;;;24.67
80422;BMP280;69763;50.182;9.144;2023-05-29T10:43:56;100375.41;;;24.82
80422;BMP280;69763;50.182;9.144;2023-05-29T10:46:21;100373.13;;;24.79
80422;BMP280;69763;50.182;9.144;2023-05-29T10:49:15;100367.75;;;24.94
80422;BMP280;69763;50.182;9.144;2023-05-29T10:51:41;100362.91;;;25.08
80422;BMP280;69763;50.182;9.144;2023-05-29T10:54:06;100363.31;;;25.03
80422;BMP280;69763;50.182;9.144;2023-05-29T10:56:31;100357.75;;;25.03
80422;BMP280;69763;50.182;9.144;2023-05-29T10:58:58;100366.34;;;25.34
80422;BMP280;69763;50.182;9.144;2023-05-29T11:01:27;100364.47;;;25.11
80422;BMP280;69763;50.182;9.144;2023-05-29T11:03:53;100364.84;;;25.06
80422;BMP280;69763;50.182;9.144;2023-05-29T11:06:21;100357.56;;;24.99
80422;BMP280;69763;50.182;9.144;2023-05-29T11:08:52;100361.00;;;25.25
80422;BMP280;69763;50.182;9.144;2023-05-29T11:11:29;100356.78;;;25.24
80422;BMP280;69763;50.182;9.144;2023-05-29T11:13:56;100352.97;;;25.17
80422;BMP280;69763;50.182;9.144;2023-05-29T11:16:36;100341.78;;;25.42
80422;BMP280;69763;50.182;9.144;2023-05-29T11:19:04;100341.72;;;25.69
80422;BMP280;69763;50.182;9.144;2023-05-29T11:21:33;100337.59;;;25.70
80422;BMP280;69763;50.182;9.144;2023-05-29T11:24:00;100351.41;;;25.55
80422;BMP280;69763;50.182;9.144;2023-05-29T11:26:27;100347.13;;;25.25
80422;BMP280;69763;50.182;9.144;2023-05-29T11:28:52;100338.97;;;25.01
80422;BMP280;69763;50.182;9.144;2023-05-29T11:31:19;100329.50;;;25.06
80422;BMP280;69763;50.182;9.144;2023-05-29T11:33:47;100327.59;;;25.23
80422;BMP280;69763;50.182;9.144;2023-05-29T11:36:14;100344.66;;;25.31
80422;BMP280;69763;50.182;9.144;2023-05-29T11:38:40;100326.22;;;25.64
80422;BMP280;69763;50.182;9.144;2023-05-29T11:41:06;100334.31;;;25.74
80422;BMP280;69763;50.182;9.144;2023-05-29T11:43:31;100331.19;;;25.82
80422;BMP280;69763;50.182;9.144;2023-05-29T11:45:57;100334.31;;;25.74
80422;BMP280;69763;50.182;9.144;2023-05-29T11:48:23;100332.44;;;25.79
80422;BMP280;69763;50.182;9.144;2023-05-29T11:50:48;100340.25;;;25.82
80422;BMP280;69763;50.182;9.144;2023-05-29T11:53:13;100337.25;;;25.92
80422;BMP280;69763;50.182;9.144;2023-05-29T11:55:40;100329.56;;;26.06
80422;BMP280;69763;50.182;9.144;2023-05-29T11:58:06;100331.53;;;26.33
80422;BMP280;69763;50.182;9.144;2023-05-29T12:00:34;100333.72;;;26.50
80422;BMP280;69763;50.182;9.144;2023-05-29T12:03:00;100335.28;;;26.23
80422;BMP280;69763;50.182;9.144;2023-05-29T12:05:26;100337.09;;;26.03
80422;BMP280;69763;50.182;9.144;2023-05-29T12:07:52;100335.47;;;25.98
80422;BMP280;69763;50.182;9.144;2023-05-29T12:10:20;100335.59;;;26.16
80422;BMP280;69763;50.182;9.144;2023-05-29T12:12:50;100345.03;;;26.24
80422;BMP280;69763;50.182;9.144;2023-05-29T12:15:16;100332.75;;;26.14
80422;BMP280;69763;50.182;9.144;2023-05-29T12:17:41;100338.91;;;26.42
80422;BMP280;69763;50.182;9.144;2023-05-29T12:20:07;100315.84;;;26.39
80422;BMP280;69763;50.182;9.144;2023-05-29T12:22:33;100325.13;;;26.30
80422;BMP280;69763;50.182;9.144;2023-05-29T12:25:04;100321.22;;;26.35
80422;BMP280;69763;50.182;9.144;2023-05-29T12:27:32;100310.66;;;26.47
80422;BMP280;69763;50.182;9.144;2023-05-29T12:30:01;100313.25;;;26.43
80422;BMP280;69763;50.182;9.144;2023-05-29T12:32:34;100318.16;;;26.29
80422;BMP280;69763;50.182;9.144;2023-05-29T12:35:00;100314.97;;;26.05
80422;BMP280;69763;50.182;9.144;2023-05-29T12:37:25;100312.47;;;25.96
80422;BMP280;69763;50.182;9.144;2023-05-29T12:42:31;100305.97;;;26.20
80422;BMP280;69763;50.182;9.144;2023-05-29T12:44:56;100321.31;;;26.37
80422;BMP280;69763;50.182;9.144;2023-05-29T12:47:27;100315.22;;;26.56
80422;BMP280;69763;50.182;9.144;2023-05-29T12:49:52;100305.97;;;26.83
80422;BMP280;69763;50.182;9.144;2023-05-29T12:52:20;100317.38;;;26.89
80422;BMP280;69763;50.182;9.144;2023-05-29T12:54:45;100308.44;;;27.08
80422;BMP280;69763;50.182;9.144;2023-05-29T12:57:10;100304.28;;;27.25
80422;BMP280;69763;50.182;9.144;2023-05-29T12:59:36;100301.53;;;27.78
80422;BMP280;69763;50.182;9.144;2023-05-29T13:02:01;100309.25;;;27.62
80422;BMP280;69763;50.182;9.144;2023-05-29T13:04:28;100309.97;;;27.44
80422;BMP280;69763;50.182;9.144;2023-05-29T13:06:53;100305.41;;;27.53
80422;BMP280;69763;50.182;9.144;2023-05-29T13:09:18;100308.78;;;27.50
80422;BMP280;69763;50.182;9.144;2023-05-29T13:11:44;100323.97;;;27.47
80422;BMP280;69763;50.182;9.144;2023-05-29T13:14:09;100315.06;;;27.17
80422;BMP280;69763;50.182;9.144;2023-05-29T13:16:34;100326.28;;;27.19
80422;BMP280;69763;50.182;9.144;2023-05-29T13:18:59;100309.88;;;27.42
80422;BMP280;69763;50.182;9.144;2023-05-29T13:21:26;100309.34;;;27.99
80422;BMP280;69763;50.182;9.144;2023-05-29T13:23:51;100307.13;;;28.15
80422;BMP280;69763;50.182;9.144;2023-05-29T13:26:17;100316.66;;;27.73
80422;BMP280;69763;50.182;9.144;2023-05-29T13:28:42;100314.81;;;27.79
80422;BMP280;69763;50.182;9.144;2023-05-29T13:31:07;100315.94;;;27.72
80422;BMP280;69763;50.182;9.144;2023-05-29T13:33:33;100321.09;;;27.44
80422;BMP280;69763;50.182;9.144;2023-05-29T13:35:58;100312.00;;;27.26
80422;BMP280;69763;50.182;9.144;2023-05-29T13:38:25;100319.34;;;27.20
80422;BMP280;69763;50.182;9.144;2023-05-29T13:40:50;100307.59;;;27.21
80422;BMP280;69763;50.182;9.144;2023-05-29T13:43:15;100304.47;;;27.13
80422;BMP280;69763;50.182;9.144;2023-05-29T13:45:40;100310.13;;;27.15
80422;BMP280;69763;50.182;9.144;2023-05-29T13:48:06;100306.34;;;26.91
80422;BMP280;69763;50.182;9.144;2023-05-29T13:50:31;100304.47;;;26.64
80422;BMP280;69763;50.182;9.144;2023-05-29T13:52:56;100295.31;;;26.46
80422;BMP280;69763;50.182;9.144;2023-05-29T13:55:23;100302.84;;;26.44
80422;BMP280;69763;50.182;9.144;2023-05-29T13:57:48;100294.78;;;26.34